createdAt,value
2023-05-21T00:01:48.449Z,12.13
2023-05-21T00:04:16.214Z,11.30
2023-05-21T00:06:43.652Z,11.32
2023-05-21T00:09:12.883Z,11.70
2023-05-21T00:11:40.748Z,11.12
2023-05-21T00:14:08.229Z,11.18
2023-05-21T00:16:35.644Z,12.37
2023-05-21T00:19:03.554Z,11.00
2023-05-21T00:21:31.700Z,10.95
2023-05-21T00:23:59.152Z,11.65
2023-05-21T00:26:26.900Z,11.90
2023-05-21T00:28:54.859Z,10.77
2023-05-21T00:31:22.414Z,10.48
2023-05-21T00:33:50.717Z,11.15
2023-05-21T00:36:18.115Z,11.75
2023-05-21T00:38:45.690Z,11.12
2023-05-21T00:41:13.742Z,10.25
2023-05-21T00:43:42.036Z,11.23
2023-05-21T00:46:13.776Z,11.02
2023-05-21T00:48:41.504Z,10.63
2023-05-21T00:51:09.973Z,10.77
2023-05-21T00:53:37.688Z,11.40
2023-05-21T00:56:05.704Z,10.95
2023-05-21T00:58:33.565Z,9.75
2023-05-21T01:01:06.850Z,11.10
2023-05-21T01:03:38.357Z,10.95
2023-05-21T01:06:06.899Z,12.20
2023-05-21T01:08:35.120Z,10.52
2023-05-21T01:11:02.725Z,11.07
2023-05-21T01:13:30.494Z,10.50
2023-05-21T01:15:59.172Z,10.55
2023-05-21T01:18:26.657Z,11.52
2023-05-21T01:20:55.226Z,10.73
2023-05-21T01:23:22.923Z,10.82
2023-05-21T01:25:50.561Z,10.63
2023-05-21T01:28:17.926Z,10.18
2023-05-21T01:30:45.607Z,10.57
2023-05-21T01:33:17.345Z,10.93
2023-05-21T01:35:47.997Z,9.88
2023-05-21T01:38:29.474Z,10.82
2023-05-21T01:40:59.940Z,10.35
2023-05-21T01:43:28.072Z,10.57
2023-05-21T01:45:56.181Z,9.60
2023-05-21T01:48:24.261Z,10.85
2023-05-21T01:50:53.062Z,9.68
2023-05-21T01:53:20.951Z,9.90
2023-05-21T01:55:48.565Z,9.43
2023-05-21T01:58:17.012Z,10.35
2023-05-21T02:00:45.463Z,11.18
2023-05-21T02:03:15.066Z,9.82
2023-05-21T02:05:42.591Z,10.95
2023-05-21T02:08:10.104Z,9.77
2023-05-21T02:10:37.810Z,10.88
2023-05-21T02:13:05.199Z,9.43
2023-05-21T02:15:34.777Z,10.27
2023-05-21T02:18:03.465Z,9.93
2023-05-21T02:20:31.373Z,10.57
2023-05-21T02:22:58.815Z,10.07
2023-05-21T02:25:26.273Z,9.57
2023-05-21T02:27:54.107Z,10.10
2023-05-21T02:30:21.608Z,10.93
2023-05-21T02:32:50.023Z,9.88
2023-05-21T02:35:17.843Z,10.02
2023-05-21T02:37:45.574Z,10.20
2023-05-21T02:40:13.147Z,9.85
2023-05-21T02:42:41.548Z,10.13
2023-05-21T02:45:10.099Z,10.85
2023-05-21T02:47:41.194Z,10.52
2023-05-21T02:50:09.305Z,10.32
2023-05-21T02:52:38.310Z,10.43
2023-05-21T02:55:06.382Z,10.90
2023-05-21T02:57:34.061Z,10.63
2023-05-21T03:00:01.454Z,10.23
2023-05-21T03:02:30.307Z,9.98
2023-05-21T03:04:58.811Z,10.35
2023-05-21T03:07:26.214Z,9.90
2023-05-21T03:09:53.719Z,10.35
2023-05-21T03:12:21.382Z,10.38
2023-05-21T03:14:49.348Z,9.73
2023-05-21T03:17:17.276Z,9.35
2023-05-21T03:19:45.017Z,9.88
2023-05-21T03:22:12.470Z,10.30
2023-05-21T03:24:40.077Z,9.82
2023-05-21T03:27:08.158Z,9.68
2023-05-21T03:29:36.120Z,10.23
2023-05-21T03:32:03.842Z,9.82
2023-05-21T03:34:34.413Z,9.73
2023-05-21T03:37:02.217Z,9.73
2023-05-21T03:39:29.832Z,10.02
2023-05-21T03:41:57.818Z,11.00
2023-05-21T03:44:26.127Z,9.57
2023-05-21T03:46:53.938Z,10.40
2023-05-21T03:49:21.827Z,10.40
2023-05-21T03:51:50.018Z,9.45
2023-05-21T03:54:18.831Z,9.52
2023-05-21T03:56:46.733Z,9.88
2023-05-21T03:59:14.184Z,9.25
2023-05-21T04:01:42.711Z,9.80
2023-05-21T04:04:12.233Z,9.07
2023-05-21T04:06:42.343Z,9.80
2023-05-21T04:09:10.080Z,9.75
2023-05-21T04:11:37.991Z,8.77
2023-05-21T04:14:06.240Z,9.43
2023-05-21T04:16:35.483Z,9.35
2023-05-21T04:19:04.977Z,9.73
2023-05-21T04:21:32.383Z,9.00
2023-05-21T04:24:00.777Z,9.88
2023-05-21T04:26:29.558Z,10.25
2023-05-21T04:28:59.369Z,10.18
2023-05-21T04:31:26.932Z,10.18
2023-05-21T04:33:54.674Z,10.18
2023-05-21T04:36:22.069Z,10.77
2023-05-21T04:38:49.913Z,9.73
2023-05-21T04:41:19.105Z,10.43
2023-05-21T04:43:46.655Z,11.40
2023-05-21T04:46:14.876Z,10.25
2023-05-21T04:48:42.799Z,10.20
2023-05-21T04:51:11.076Z,10.95
2023-05-21T04:53:38.850Z,11.50
2023-05-21T04:56:07.410Z,12.35
2023-05-21T04:58:34.798Z,11.88
2023-05-21T05:01:04.124Z,12.25
2023-05-21T05:03:31.923Z,12.48
2023-05-21T05:06:00.088Z,12.85
2023-05-21T05:08:27.485Z,13.10
2023-05-21T05:10:55.226Z,13.02
2023-05-21T05:13:22.738Z,12.77
2023-05-21T05:15:51.473Z,13.45
2023-05-21T05:18:20.466Z,12.98
2023-05-21T05:20:47.830Z,12.10
2023-05-21T05:23:15.408Z,12.98
2023-05-21T05:25:43.132Z,13.57
2023-05-21T05:28:10.757Z,12.98
2023-05-21T05:30:38.265Z,13.95
2023-05-21T05:33:07.884Z,13.27
2023-05-21T05:35:36.530Z,13.48
2023-05-21T05:38:04.172Z,12.85
2023-05-21T05:40:31.897Z,12.75
2023-05-21T05:42:59.330Z,13.38
2023-05-21T05:45:26.888Z,13.57
2023-05-21T05:47:55.076Z,12.57
2023-05-21T05:50:22.540Z,12.98
2023-05-21T05:52:51.295Z,12.88
2023-05-21T05:55:18.918Z,11.77
2023-05-21T05:57:46.303Z,12.35
2023-05-21T06:00:14.285Z,12.25
2023-05-21T06:02:44.077Z,12.57
2023-05-21T06:05:11.488Z,12.75
2023-05-21T06:07:39.638Z,12.65
2023-05-21T06:10:07.856Z,12.00
2023-05-21T06:12:35.419Z,12.93
2023-05-21T06:15:02.949Z,12.40
2023-05-21T06:17:33.267Z,13.13
2023-05-21T06:20:00.983Z,12.02
2023-05-21T06:22:28.864Z,13.15
2023-05-21T06:24:56.835Z,13.13
2023-05-21T06:27:24.333Z,12.40
2023-05-21T06:29:51.783Z,12.52
2023-05-21T06:32:21.420Z,11.38
2023-05-21T06:34:48.911Z,11.65
2023-05-21T06:37:26.427Z,12.70
2023-05-21T06:39:54.730Z,12.65
2023-05-21T06:42:22.354Z,13.32
2023-05-21T06:44:52.512Z,12.57
2023-05-21T06:47:20.993Z,12.98
2023-05-21T06:49:48.527Z,13.02
2023-05-21T06:52:15.958Z,13.43
2023-05-21T06:54:44.254Z,13.23
2023-05-21T06:57:11.675Z,13.13
2023-05-21T06:59:39.094Z,13.73
2023-05-21T07:02:06.871Z,13.93
2023-05-21T07:04:35.315Z,13.57
2023-05-21T07:07:04.592Z,13.23
2023-05-21T07:09:32.370Z,13.70
2023-05-21T07:11:59.902Z,13.82
2023-05-21T07:14:27.367Z,13.15
2023-05-21T07:16:55.078Z,14.18
2023-05-21T07:19:23.062Z,13.82
2023-05-21T07:21:50.628Z,14.65
2023-05-21T07:24:18.303Z,14.45
2023-05-21T07:26:45.877Z,13.73
2023-05-21T07:29:13.479Z,13.90
2023-05-21T07:31:41.366Z,14.32
2023-05-21T07:34:08.889Z,13.95
2023-05-21T07:36:37.041Z,14.52
2023-05-21T07:39:05.071Z,14.18
2023-05-21T07:41:32.841Z,12.82
2023-05-21T07:44:01.730Z,14.63
2023-05-21T07:46:31.714Z,13.88
2023-05-21T07:48:59.255Z,12.90
2023-05-21T07:51:27.019Z,12.65
2023-05-21T07:53:55.359Z,13.02
2023-05-21T07:56:26.935Z,13.07
2023-05-21T07:58:54.687Z,12.70
2023-05-21T08:01:22.228Z,12.70
2023-05-21T08:03:50.064Z,12.77
2023-05-21T08:06:17.695Z,13.90
2023-05-21T08:08:45.278Z,12.73
2023-05-21T08:11:13.155Z,13.27
2023-05-21T08:13:41.094Z,13.30
2023-05-21T08:16:09.784Z,12.32
2023-05-21T08:18:37.441Z,12.98
2023-05-21T08:21:05.119Z,13.05
2023-05-21T08:23:32.712Z,12.37
2023-05-21T08:26:00.633Z,12.32
2023-05-21T08:28:29.022Z,12.25
2023-05-21T08:30:56.778Z,13.27
2023-05-21T08:33:24.602Z,12.10
2023-05-21T08:35:51.964Z,12.52
2023-05-21T08:38:19.622Z,12.27
2023-05-21T08:40:52.336Z,13.20
2023-05-21T08:43:19.737Z,14.27
2023-05-21T08:45:53.295Z,13.80
2023-05-21T08:48:22.439Z,13.62
2023-05-21T08:50:53.546Z,13.98
2023-05-21T08:53:28.013Z,14.75
2023-05-21T08:55:56.360Z,13.62
2023-05-21T08:58:24.570Z,13.77
2023-05-21T09:00:54.703Z,11.68
2023-05-21T09:03:23.148Z,12.20
2023-05-21T09:05:51.794Z,12.23
2023-05-21T09:08:22.328Z,12.25
2023-05-21T09:10:50.990Z,12.30
2023-05-21T09:13:19.431Z,12.23
2023-05-21T09:15:47.691Z,13.88
2023-05-21T09:18:15.630Z,12.82
2023-05-21T09:20:44.958Z,13.73
2023-05-21T09:23:16.739Z,13.40
2023-05-21T09:25:48.466Z,13.98
2023-05-21T09:28:16.838Z,13.10
2023-05-21T09:30:48.260Z,13.55
2023-05-21T09:33:26.220Z,14.63
2023-05-21T09:35:53.735Z,13.82
2023-05-21T09:38:24.994Z,13.48
2023-05-21T09:40:54.925Z,14.13
2023-05-21T09:43:23.168Z,14.32
2023-05-21T09:45:55.101Z,13.25
2023-05-21T09:48:36.756Z,13.70
2023-05-21T09:51:11.089Z,14.10
2023-05-21T09:53:49.739Z,14.45
2023-05-21T09:56:31.967Z,13.90
2023-05-21T09:59:01.974Z,13.23
2023-05-21T10:01:29.378Z,14.63
2023-05-21T10:03:58.758Z,12.80
2023-05-21T10:06:31.071Z,13.62
2023-05-21T10:09:01.192Z,13.35
2023-05-21T10:11:31.111Z,13.68
2023-05-21T10:14:01.508Z,13.60
2023-05-21T10:16:29.104Z,14.63
2023-05-21T10:18:57.675Z,13.65
2023-05-21T10:21:26.172Z,14.10
2023-05-21T10:23:53.879Z,13.98
2023-05-21T10:26:24.189Z,13.20
2023-05-21T10:28:52.187Z,14.23
2023-05-21T10:31:19.642Z,13.27
2023-05-21T10:33:47.074Z,13.70
2023-05-21T10:36:16.747Z,13.62
2023-05-21T10:38:44.257Z,13.88
2023-05-21T10:41:15.921Z,14.52
2023-05-21T10:44:11.279Z,13.55
2023-05-21T10:46:59.932Z,13.70
2023-05-21T10:49:44.396Z,14.65
2023-05-21T10:52:28.121Z,14.63
2023-05-21T10:55:23.563Z,14.25
2023-05-21T10:57:59.302Z,14.90
2023-05-21T11:00:27.182Z,15.82
2023-05-21T11:02:54.739Z,15.07
2023-05-21T11:05:56.328Z,14.38
2023-05-21T11:08:29.083Z,14.50
2023-05-21T11:10:58.346Z,15.38
2023-05-21T11:13:27.005Z,15.57
2023-05-21T11:16:01.406Z,14.60
2023-05-21T11:18:49.239Z,14.87
2023-05-21T11:21:18.433Z,14.48
2023-05-21T11:23:52.300Z,13.75
2023-05-21T11:26:26.991Z,14.50
2023-05-21T11:29:06.640Z,14.70
2023-05-21T11:31:38.444Z,14.63
2023-05-21T11:34:29.589Z,14.45
2023-05-21T11:37:25.033Z,14.98
2023-05-21T11:39:52.718Z,14.20
2023-05-21T11:42:36.256Z,15.10
2023-05-21T11:45:04.247Z,15.13
2023-05-21T11:47:33.033Z,14.43
2023-05-21T11:50:01.656Z,13.90
2023-05-21T11:52:30.393Z,13.68
2023-05-21T11:54:58.284Z,14.98
2023-05-21T11:57:31.238Z,14.77
2023-05-21T11:59:59.910Z,13.60
2023-05-21T12:02:33.715Z,14.82
2023-05-21T12:05:01.451Z,12.90
2023-05-21T12:07:32.297Z,13.32
2023-05-21T12:10:00.285Z,13.82
2023-05-21T12:12:33.034Z,14.63
2023-05-21T12:15:10.373Z,13.93
2023-05-21T12:17:39.221Z,13.88
2023-05-21T12:20:08.343Z,14.05
2023-05-21T12:22:35.776Z,14.52
2023-05-21T12:25:04.396Z,14.00
2023-05-21T12:27:33.422Z,14.40
2023-05-21T12:30:02.215Z,13.82
2023-05-21T12:32:29.997Z,14.13
2023-05-21T12:34:57.403Z,14.25
2023-05-21T12:37:35.513Z,14.43
2023-05-21T12:40:05.202Z,14.15
2023-05-21T12:42:35.682Z,14.30
2023-05-21T12:45:07.337Z,13.85
2023-05-21T12:47:34.761Z,13.00
2023-05-21T12:50:08.131Z,13.32
2023-05-21T12:52:35.763Z,14.18
2023-05-21T12:55:03.253Z,13.48
2023-05-21T12:57:38.617Z,12.07
2023-05-21T13:00:12.646Z,13.85
2023-05-21T13:02:41.271Z,13.80
2023-05-21T13:05:17.524Z,14.63
2023-05-21T13:07:46.920Z,14.18
2023-05-21T13:10:16.441Z,14.57
2023-05-21T13:12:44.816Z,14.45
2023-05-21T13:15:12.405Z,14.82
2023-05-21T13:17:40.149Z,13.80
2023-05-21T13:20:08.854Z,13.70
2023-05-21T13:22:39.074Z,14.40
2023-05-21T13:25:07.328Z,14.87
2023-05-21T13:27:34.761Z,13.95
2023-05-21T13:30:02.231Z,13.27
2023-05-21T13:32:30.155Z,14.48
2023-05-21T13:34:57.742Z,14.73
2023-05-21T13:37:25.161Z,14.98
2023-05-21T13:39:52.788Z,13.57
2023-05-21T13:42:21.177Z,13.70
2023-05-21T13:44:48.729Z,14.50
2023-05-21T13:47:16.467Z,13.80
2023-05-21T13:49:43.871Z,14.35
2023-05-21T13:52:11.703Z,13.77
2023-05-21T13:54:39.685Z,14.40
2023-05-21T13:57:07.082Z,14.43
2023-05-21T13:59:34.471Z,14.52
2023-05-21T14:02:02.197Z,14.32
2023-05-21T14:04:30.011Z,14.57
2023-05-21T14:06:57.381Z,13.68
2023-05-21T14:09:27.249Z,13.05
2023-05-21T14:11:56.167Z,12.70
2023-05-21T14:14:23.668Z,13.43
2023-05-21T14:16:51.511Z,13.80
2023-05-21T14:19:19.346Z,12.82
2023-05-21T14:21:46.766Z,13.55
2023-05-21T14:24:14.127Z,13.07
2023-05-21T14:26:41.865Z,12.68
2023-05-21T14:29:09.377Z,13.23
2023-05-21T14:31:36.960Z,13.70
2023-05-21T14:34:06.837Z,13.73
2023-05-21T14:36:34.561Z,12.82
2023-05-21T14:39:01.980Z,12.98
2023-05-21T14:41:29.710Z,13.30
2023-05-21T14:43:57.141Z,12.93
2023-05-21T14:46:24.651Z,12.88
2023-05-21T14:48:52.932Z,13.60
2023-05-21T14:51:20.422Z,12.70
2023-05-21T14:53:47.826Z,13.23
2023-05-21T14:56:15.646Z,13.27
2023-05-21T14:58:43.035Z,13.05
2023-05-21T15:01:10.548Z,12.70
2023-05-21T15:03:38.386Z,12.70
2023-05-21T15:06:05.919Z,13.80
2023-05-21T15:08:33.323Z,12.73
2023-05-21T15:11:01.064Z,12.82
2023-05-21T15:13:28.480Z,12.70
2023-05-21T15:15:56.210Z,12.93
2023-05-21T15:18:24.879Z,12.55
2023-05-21T15:20:52.892Z,12.88
2023-05-21T15:23:20.434Z,12.07
2023-05-21T15:25:48.146Z,12.95
2023-05-21T15:28:15.610Z,12.35
2023-05-21T15:30:43.048Z,12.63
2023-05-21T15:33:11.354Z,12.70
2023-05-21T15:35:39.263Z,12.18
2023-05-21T15:38:06.929Z,13.45
2023-05-21T15:40:34.628Z,12.50
2023-05-21T15:43:02.111Z,12.85
2023-05-21T15:45:29.583Z,13.13
2023-05-21T15:47:57.333Z,12.73
2023-05-21T15:50:24.861Z,11.55
2023-05-21T15:52:53.564Z,11.50
2023-05-21T15:55:21.485Z,11.65
2023-05-21T15:57:49.040Z,12.30
2023-05-21T16:00:16.514Z,12.68
2023-05-21T16:02:44.269Z,12.75
2023-05-21T16:05:11.754Z,12.37
2023-05-21T16:07:39.305Z,12.13
2023-05-21T16:10:09.738Z,12.20
2023-05-21T16:12:37.191Z,12.35
2023-05-21T16:15:05.418Z,12.63
2023-05-21T16:17:33.173Z,12.60
2023-05-21T16:20:00.786Z,11.45
2023-05-21T16:22:28.185Z,12.73
2023-05-21T16:24:56.310Z,12.32
2023-05-21T16:27:23.718Z,12.90
2023-05-21T16:29:51.098Z,12.27
2023-05-21T16:32:18.883Z,12.75
2023-05-21T16:34:46.346Z,12.20
2023-05-21T16:37:13.785Z,13.23
2023-05-21T16:39:41.436Z,12.88
2023-05-21T16:42:08.819Z,12.48
2023-05-21T16:44:37.880Z,12.07
2023-05-21T16:47:05.752Z,12.52
2023-05-21T16:49:33.171Z,12.85
2023-05-21T16:52:01.648Z,12.10
2023-05-21T16:54:29.329Z,14.23
2023-05-21T16:56:56.884Z,13.70
2023-05-21T16:59:24.316Z,13.25
2023-05-21T17:01:52.038Z,12.88
2023-05-21T17:04:19.470Z,12.13
2023-05-21T17:06:46.882Z,13.15
2023-05-21T17:09:15.074Z,12.95
2023-05-21T17:11:43.643Z,13.15
2023-05-21T17:14:13.522Z,12.55
2023-05-21T17:16:45.332Z,11.98
2023-05-21T17:19:12.766Z,12.73
2023-05-21T17:21:40.403Z,12.20
2023-05-21T17:24:08.080Z,12.07
2023-05-21T17:26:35.452Z,12.05
2023-05-21T17:29:02.912Z,11.65
2023-05-21T17:31:32.373Z,12.32
2023-05-21T17:34:00.358Z,12.05
2023-05-21T17:36:27.772Z,11.68
2023-05-21T17:38:55.496Z,10.77
2023-05-21T17:41:25.236Z,11.82
2023-05-21T17:43:52.705Z,12.25
2023-05-21T17:46:20.435Z,12.37
2023-05-21T17:48:47.838Z,11.77
2023-05-21T17:51:15.208Z,12.15
2023-05-21T17:53:42.856Z,11.82
2023-05-21T17:56:11.404Z,11.38
2023-05-21T17:58:38.774Z,11.20
2023-05-21T18:01:06.647Z,12.02
2023-05-21T18:03:34.339Z,12.95
2023-05-21T18:06:01.730Z,12.15
2023-05-21T18:08:29.143Z,11.95
2023-05-21T18:10:57.895Z,12.02
2023-05-21T18:13:25.383Z,11.98
2023-05-21T18:15:52.827Z,10.80
2023-05-21T18:18:21.755Z,11.25
2023-05-21T18:20:50.224Z,10.68
2023-05-21T18:23:17.738Z,12.77
2023-05-21T18:25:45.442Z,12.60
2023-05-21T18:28:12.825Z,11.85
2023-05-21T18:30:40.217Z,11.63
2023-05-21T18:33:08.428Z,11.20
2023-05-21T18:35:35.985Z,10.88
2023-05-21T18:38:04.265Z,11.20
2023-05-21T18:40:33.269Z,11.25
2023-05-21T18:43:00.805Z,10.38
2023-05-21T18:45:28.407Z,10.95
2023-05-21T18:47:56.246Z,10.98
2023-05-21T18:50:23.694Z,12.30
2023-05-21T18:52:53.419Z,11.55
2023-05-21T18:55:21.212Z,11.85
2023-05-21T18:57:48.677Z,11.70
2023-05-21T19:00:16.390Z,11.48
2023-05-21T19:02:44.419Z,11.25
2023-05-21T19:05:12.045Z,10.68
2023-05-21T19:07:41.239Z,10.88
2023-05-21T19:10:10.639Z,11.25
2023-05-21T19:12:39.522Z,11.43
2023-05-21T19:15:07.681Z,10.88
2023-05-21T19:17:36.334Z,11.55
2023-05-21T19:20:05.362Z,11.40
2023-05-21T19:22:32.970Z,10.63
2023-05-21T19:25:00.881Z,12.55
2023-05-21T19:27:29.392Z,11.85
2023-05-21T19:29:56.970Z,11.93
2023-05-21T19:32:24.746Z,11.95
2023-05-21T19:34:52.340Z,12.00
2023-05-21T19:37:19.804Z,12.65
2023-05-21T19:39:50.014Z,11.40
2023-05-21T19:42:18.384Z,11.60
2023-05-21T19:44:46.296Z,11.82
2023-05-21T19:47:14.276Z,12.15
2023-05-21T19:49:41.701Z,11.32
2023-05-21T19:52:10.369Z,11.35
2023-05-21T19:54:38.061Z,11.45
2023-05-21T19:57:05.926Z,10.27
2023-05-21T19:59:33.381Z,10.82
2023-05-21T20:02:01.069Z,11.52
2023-05-21T20:04:28.711Z,10.52
2023-05-21T20:06:56.065Z,10.20
2023-05-21T20:09:23.431Z,9.70
2023-05-21T20:11:51.203Z,10.15
2023-05-21T20:14:18.568Z,10.90
2023-05-21T20:16:47.093Z,10.63
2023-05-21T20:19:15.255Z,11.32
2023-05-21T20:21:42.801Z,10.95
2023-05-21T20:24:11.280Z,11.35
2023-05-21T20:26:39.939Z,10.50
2023-05-21T20:29:08.033Z,11.38
2023-05-21T20:31:35.955Z,9.65
2023-05-21T20:34:07.463Z,12.15
2023-05-21T20:36:35.797Z,10.45
2023-05-21T20:39:03.281Z,10.57
2023-05-21T20:41:37.821Z,9.65
2023-05-21T20:44:05.723Z,10.13
2023-05-21T20:46:34.228Z,11.30
2023-05-21T20:49:01.728Z,10.18
2023-05-21T20:51:29.163Z,10.88
2023-05-21T20:53:57.247Z,10.40
2023-05-21T20:56:40.925Z,10.55
2023-05-21T20:59:11.165Z,10.52
2023-05-21T21:01:39.233Z,11.38
2023-05-21T21:04:06.814Z,10.93
2023-05-21T21:06:34.856Z,10.13
2023-05-21T21:09:02.276Z,9.77
2023-05-21T21:11:29.661Z,9.98
2023-05-21T21:13:57.295Z,9.30
2023-05-21T21:16:24.753Z,9.57
2023-05-21T21:18:52.179Z,9.98
2023-05-21T21:21:19.855Z,10.77
2023-05-21T21:23:47.234Z,10.52
2023-05-21T21:26:14.613Z,10.48
2023-05-21T21:28:42.262Z,9.50
2023-05-21T21:31:09.677Z,10.30
2023-05-21T21:33:37.110Z,9.73
2023-05-21T21:36:05.099Z,10.43
2023-05-21T21:38:32.516Z,12.00
2023-05-21T21:40:59.916Z,12.02
2023-05-21T21:43:27.627Z,10.57
2023-05-21T21:45:55.081Z,9.77
2023-05-21T21:48:22.510Z,9.60
2023-05-21T21:50:50.187Z,9.32
2023-05-21T21:53:17.790Z,9.85
2023-05-21T21:55:45.186Z,10.10
2023-05-21T21:58:12.848Z,9.73
2023-05-21T22:00:40.897Z,9.10
2023-05-21T22:03:08.849Z,9.25
2023-05-21T22:05:36.232Z,8.98
2023-05-21T22:08:03.780Z,9.27
2023-05-21T22:10:33.485Z,10.57
2023-05-21T22:13:02.808Z,9.70
2023-05-21T22:15:31.235Z,9.43
2023-05-21T22:18:00.075Z,9.35
2023-05-21T22:20:30.126Z,10.27
2023-05-21T22:22:57.632Z,9.60
2023-05-21T22:25:25.507Z,9.50
2023-05-21T22:27:52.948Z,10.27
2023-05-21T22:30:20.344Z,9.52
2023-05-21T22:32:48.129Z,8.77
2023-05-21T22:35:15.605Z,9.43
2023-05-21T22:37:43.015Z,9.32
2023-05-21T22:40:10.903Z,9.05
2023-05-21T22:42:38.336Z,9.65
2023-05-21T22:45:06.661Z,9.45
2023-05-21T22:47:37.116Z,9.15
2023-05-21T22:50:04.853Z,9.80
2023-05-21T22:52:32.533Z,8.65
2023-05-21T22:55:00.734Z,9.15
2023-05-21T22:57:28.241Z,8.63
2023-05-21T22:59:56.001Z,8.70
2023-05-21T23:02:23.684Z,9.68
2023-05-21T23:04:51.200Z,9.32
2023-05-21T23:07:18.593Z,9.18
2023-05-21T23:09:46.790Z,8.90
2023-05-21T23:12:14.327Z,9.65
2023-05-21T23:14:41.821Z,10.10
2023-05-21T23:17:09.805Z,9.77
2023-05-21T23:19:37.275Z,9.40
2023-05-21T23:22:04.806Z,9.48
2023-05-21T23:24:35.070Z,9.27
2023-05-21T23:27:03.087Z,9.80
2023-05-21T23:29:30.511Z,9.63
2023-05-21T23:31:58.328Z,9.57
2023-05-21T23:34:25.986Z,8.95
2023-05-21T23:36:53.412Z,9.32
2023-05-21T23:39:21.326Z,9.68
2023-05-21T23:41:48.841Z,8.80
2023-05-21T23:44:16.403Z,9.45
2023-05-21T23:46:44.072Z,9.52
2023-05-21T23:49:11.721Z,9.27
2023-05-21T23:51:39.362Z,9.93
2023-05-21T23:54:08.130Z,9.27
2023-05-21T23:56:35.567Z,10.10
2023-05-21T23:59:02.963Z,9.52
